createdAt,value
2018-01-27T00:00:55.352Z,81.18
2018-01-27T00:01:55.392Z,80.71
2018-01-27T00:02:55.111Z,80.71
2018-01-27T00:03:55.430Z,80.71
2018-01-27T00:04:55.279Z,80.99
2018-01-27T00:05:55.422Z,80.9
2018-01-27T00:06:55.146Z,80.8
2018-01-27T00:07:55.440Z,81.18
2018-01-27T00:08:55.175Z,80.9
2018-01-27T00:09:55.502Z,80.9
2018-01-27T00:10:55.515Z,80.99
2018-01-27T00:11:55.219Z,80.8
2018-01-27T00:12:55.553Z,80.8
2018-01-27T00:13:55.259Z,80.8
2018-01-27T00:14:55.573Z,81.18
2018-01-27T00:15:55.273Z,80.99
2018-01-27T00:16:55.578Z,80.99
2018-01-27T00:17:55.592Z,80.99
2018-01-27T00:18:55.638Z,80.9
2018-01-27T00:19:55.705Z,81.18
2018-01-27T00:20:55.342Z,80.71
2018-01-27T00:21:55.388Z,80.9
2018-01-27T00:22:55.693Z,80.9
2018-01-27T00:23:55.681Z,80.99
2018-01-27T00:24:55.420Z,80.99
2018-01-27T00:25:55.708Z,80.9
2018-01-27T00:26:55.750Z,80.8
2018-01-27T00:27:55.763Z,80.99
2018-01-27T00:28:55.477Z,81.09
2018-01-27T00:29:55.813Z,80.99
2018-01-27T00:30:55.767Z,81.18
2018-01-27T00:31:55.824Z,80.9
2018-01-27T00:32:55.808Z,80.99
2018-01-27T00:33:55.807Z,81.09
2018-01-27T00:34:55.542Z,81.09
2018-01-27T00:35:55.865Z,80.9
2018-01-27T00:36:55.886Z,81.28
2018-01-27T00:37:55.893Z,80.8
2018-01-27T00:38:55.607Z,80.9
2018-01-27T00:39:55.932Z,80.8
2018-01-27T00:40:55.624Z,80.8
2018-01-27T00:41:55.949Z,80.71
2018-01-27T00:42:55.933Z,80.71
2018-01-27T00:43:55.947Z,80.61
2018-01-27T00:44:55.794Z,80.9
2018-01-27T00:45:55.727Z,80.71
2018-01-27T00:46:55.740Z,80.52
2018-01-27T00:47:55.734Z,80.8
2018-01-27T00:48:55.748Z,80.8
2018-01-27T00:49:55.821Z,80.71
2018-01-27T00:50:56.054Z,81.18
2018-01-27T00:51:56.070Z,80.8
2018-01-27T00:52:55.823Z,81.18
2018-01-27T00:53:55.807Z,80.9
2018-01-27T00:54:55.872Z,80.99
2018-01-27T00:55:56.148Z,80.99
2018-01-27T00:56:56.129Z,80.9
2018-01-27T00:57:55.872Z,80.8
2018-01-27T00:58:56.159Z,80.8
2018-01-27T00:59:56.211Z,80.9
2018-01-27T01:00:55.937Z,80.9
2018-01-27T01:01:56.199Z,80.99
2018-01-27T01:02:55.944Z,81.09
2018-01-27T01:03:55.977Z,80.9
2018-01-27T01:04:55.983Z,80.9
2018-01-27T01:05:56.006Z,80.99
2018-01-27T01:06:56.010Z,81.24
2018-01-27T01:07:56.028Z,80.9
2018-01-27T01:08:56.307Z,80.99
2018-01-27T01:09:56.357Z,80.99
2018-01-27T01:10:56.356Z,80.99
2018-01-27T01:11:56.070Z,80.8
2018-01-27T01:12:56.386Z,80.8
2018-01-27T01:13:56.100Z,80.9
2018-01-27T01:14:56.380Z,80.99
2018-01-27T01:15:56.147Z,80.9
2018-01-27T01:16:56.139Z,80.8
2018-01-27T01:17:56.153Z,80.99
2018-01-27T01:18:56.454Z,80.9
2018-01-27T01:19:56.481Z,81.09
2018-01-27T01:20:56.197Z,80.9
2018-01-27T01:21:56.509Z,80.71
2018-01-27T01:22:56.233Z,80.71
2018-01-27T01:23:56.247Z,80.8
2018-01-27T01:24:56.240Z,80.9
2018-01-27T01:25:56.550Z,80.99
2018-01-27T01:26:56.584Z,80.8
2018-01-27T01:27:56.594Z,81.28
2018-01-27T01:28:56.330Z,81.09
2018-01-27T01:29:56.333Z,80.9
2018-01-27T01:30:56.605Z,81.28
2018-01-27T01:31:56.651Z,81.18
2018-01-27T01:32:56.373Z,80.9
2018-01-27T01:33:56.375Z,81.18
2018-01-27T01:34:56.390Z,80.99
2018-01-27T01:35:56.686Z,80.8
2018-01-27T01:36:56.696Z,80.9
2018-01-27T01:37:56.738Z,81.18
2018-01-27T01:38:56.467Z,80.8
2018-01-27T01:39:56.728Z,80.9
2018-01-27T01:40:56.925Z,80.8
2018-01-27T01:41:56.489Z,80.99
2018-01-27T01:42:56.814Z,80.71
2018-01-27T01:43:56.817Z,80.8
2018-01-27T01:44:56.531Z,80.8
2018-01-27T01:45:56.544Z,80.8
2018-01-27T01:46:56.570Z,80.71
2018-01-27T01:47:56.560Z,80.99
2018-01-27T01:48:56.574Z,80.71
2018-01-27T01:49:56.621Z,80.8
2018-01-27T01:50:56.673Z,80.9
2018-01-27T01:51:56.638Z,80.9
2018-01-27T01:52:56.924Z,80.9
2018-01-27T01:53:56.656Z,80.8
2018-01-27T01:54:56.659Z,80.99
2018-01-27T01:55:56.953Z,80.99
2018-01-27T01:56:56.997Z,81.09
2018-01-27T01:57:56.992Z,80.71
2018-01-27T01:58:57.025Z,80.71
2018-01-27T01:59:57.040Z,80.71
2018-01-27T02:00:56.773Z,80.9
2018-01-27T02:01:56.787Z,80.9
2018-01-27T02:02:56.792Z,80.99
2018-01-27T02:03:56.806Z,80.8
2018-01-27T02:04:57.110Z,80.71
2018-01-27T02:05:56.883Z,80.99
2018-01-27T02:06:56.857Z,80.8
2018-01-27T02:07:56.849Z,80.76
2018-01-27T02:08:57.178Z,80.61
2018-01-27T02:09:56.949Z,80.86
2018-01-27T02:10:56.966Z,80.47
2018-01-27T02:11:57.209Z,80.99
2018-01-27T02:12:57.203Z,80.86
2018-01-27T02:13:56.921Z,80.76
2018-01-27T02:14:57.227Z,80.86
2018-01-27T02:15:57.327Z,80.99
2018-01-27T02:16:57.047Z,80.86
2018-01-27T02:17:57.157Z,80.99
2018-01-27T02:18:57.004Z,80.86
2018-01-27T02:19:57.034Z,80.86
2018-01-27T02:20:57.040Z,80.99
2018-01-27T02:21:57.063Z,80.66
2018-01-27T02:22:57.050Z,80.57
2018-01-27T02:23:57.384Z,80.61
2018-01-27T02:24:57.095Z,80.76
2018-01-27T02:25:57.519Z,80.76
2018-01-27T02:26:57.394Z,80.66
2018-01-27T02:27:57.143Z,80.57
2018-01-27T02:28:57.456Z,80.29
2018-01-27T02:29:57.159Z,80.95
2018-01-27T02:30:57.161Z,80.76
2018-01-27T02:31:57.488Z,80.66
2018-01-27T02:32:57.506Z,80.86
2018-01-27T02:33:57.232Z,80.19
2018-01-27T02:34:57.498Z,80.57
2018-01-27T02:35:57.240Z,80.66
2018-01-27T02:36:57.556Z,80.57
2018-01-27T02:37:57.580Z,80.86
2018-01-27T02:38:57.279Z,80.66
2018-01-27T02:39:57.607Z,80.66
2018-01-27T02:40:57.730Z,80.66
2018-01-27T02:41:57.628Z,80.66
2018-01-27T02:42:57.324Z,80.76
2018-01-27T02:43:57.663Z,80.66
2018-01-27T02:44:57.677Z,80.76
2018-01-27T02:45:57.653Z,80.47
2018-01-27T02:46:57.402Z,80.38
2018-01-27T02:47:57.706Z,80.29
2018-01-27T02:48:57.721Z,80.47
2018-01-27T02:49:57.719Z,80.57
2018-01-27T02:50:57.716Z,80.57
2018-01-27T02:51:57.761Z,80.57
2018-01-27T02:52:57.743Z,80.66
2018-01-27T02:53:57.795Z,80.57
2018-01-27T02:54:57.816Z,80.57
2018-01-27T02:55:57.831Z,80.38
2018-01-27T02:56:57.674Z,80.57
2018-01-27T02:57:57.532Z,80.33
2018-01-27T02:58:57.869Z,80.66
2018-01-27T02:59:57.842Z,80.38
2018-01-27T03:00:57.574Z,80.47
2018-01-27T03:01:57.601Z,80.57
2018-01-27T03:02:57.625Z,80.19
2018-01-27T03:03:57.908Z,80.29
2018-01-27T03:04:57.951Z,80.66
2018-01-27T03:05:57.933Z,80.38
2018-01-27T03:06:57.945Z,80.57
2018-01-27T03:07:57.671Z,80.19
2018-01-27T03:08:57.707Z,80.38
2018-01-27T03:09:57.701Z,80.66
2018-01-27T03:10:57.724Z,80.38
2018-01-27T03:11:58.048Z,80.57
2018-01-27T03:12:58.063Z,80.38
2018-01-27T03:13:58.077Z,80.57
2018-01-27T03:14:58.093Z,80.57
2018-01-27T03:15:57.792Z,80.29
2018-01-27T03:16:58.079Z,80.47
2018-01-27T03:17:58.121Z,79.91
2018-01-27T03:18:58.103Z,80.1
2018-01-27T03:19:58.118Z,80.57
2018-01-27T03:20:57.882Z,80.38
2018-01-27T03:21:57.888Z,80.57
2018-01-27T03:22:58.156Z,80.57
2018-01-27T03:23:57.914Z,80.47
2018-01-27T03:24:57.919Z,80.38
2018-01-27T03:25:57.933Z,80.66
2018-01-27T03:26:58.218Z,80.66
2018-01-27T03:27:58.238Z,80.47
2018-01-27T03:28:58.276Z,80.57
2018-01-27T03:29:58.347Z,80.57
2018-01-27T03:30:58.286Z,80.38
2018-01-27T03:31:58.328Z,80.57
2018-01-27T03:32:58.051Z,80.47
2018-01-27T03:33:58.342Z,80.57
2018-01-27T03:34:58.072Z,80.66
2018-01-27T03:35:58.091Z,80.66
2018-01-27T03:36:58.083Z,80.38
2018-01-27T03:37:58.396Z,80.57
2018-01-27T03:38:58.101Z,80.29
2018-01-27T03:39:58.124Z,80.66
2018-01-27T03:40:58.148Z,80.57
2018-01-27T03:41:58.467Z,80.29
2018-01-27T03:42:58.434Z,80.1
2018-01-27T03:43:58.491Z,79.81
2018-01-27T03:44:58.505Z,80.29
2018-01-27T03:45:58.218Z,80
2018-01-27T03:46:58.210Z,79.91
2018-01-27T03:47:58.536Z,79.91
2018-01-27T03:48:58.247Z,80.19
2018-01-27T03:49:58.272Z,79.91
2018-01-27T03:50:58.296Z,79.81
2018-01-27T03:51:58.594Z,80.86
2018-01-27T03:52:58.292Z,80
2018-01-27T03:53:58.620Z,79.91
2018-01-27T03:54:58.349Z,79.81
2018-01-27T03:55:58.629Z,80
2018-01-27T03:56:58.638Z,80
2018-01-27T03:57:58.393Z,80.1
2018-01-27T03:58:58.379Z,80.38
2018-01-27T03:59:58.683Z,80.1
2018-01-27T04:00:58.437Z,80.19
2018-01-27T04:01:58.416Z,79.91
2018-01-27T04:02:58.452Z,80.1
2018-01-27T04:03:58.477Z,80
2018-01-27T04:04:58.780Z,80
2018-01-27T04:05:58.795Z,80.1
2018-01-27T04:06:58.635Z,79.91
2018-01-27T04:07:58.510Z,79.91
2018-01-27T04:08:58.513Z,80.1
2018-01-27T04:09:58.541Z,80
2018-01-27T04:10:58.821Z,80
2018-01-27T04:11:58.553Z,80.19
2018-01-27T04:12:58.600Z,79.91
2018-01-27T04:13:58.892Z,79.81
2018-01-27T04:14:58.906Z,79.81
2018-01-27T04:15:58.949Z,79.91
2018-01-27T04:16:58.633Z,80
2018-01-27T04:17:58.919Z,80.19
2018-01-27T04:18:58.663Z,80.19
2018-01-27T04:19:58.979Z,80
2018-01-27T04:20:58.961Z,80
2018-01-27T04:21:58.713Z,79.81
2018-01-27T04:22:58.725Z,80.38
2018-01-27T04:23:58.739Z,80.1
2018-01-27T04:24:58.736Z,80.1
2018-01-27T04:25:58.757Z,80.19
2018-01-27T04:26:59.083Z,80.19
2018-01-27T04:27:58.810Z,80.1
2018-01-27T04:28:59.079Z,79.72
2018-01-27T04:29:59.096Z,80.19
2018-01-27T04:30:59.097Z,80.19
2018-01-27T04:31:59.305Z,80.19
2018-01-27T04:32:58.869Z,79.62
2018-01-27T04:33:58.875Z,79.81
2018-01-27T04:34:58.890Z,79.81
2018-01-27T04:35:58.892Z,80.29
2018-01-27T04:36:59.222Z,80.1
2018-01-27T04:37:59.224Z,80.19
2018-01-27T04:38:59.206Z,80.38
2018-01-27T04:39:59.249Z,80.19
2018-01-27T04:40:58.960Z,80.19
2018-01-27T04:41:58.964Z,80
2018-01-27T04:42:59.262Z,80.19
2018-01-27T04:43:59.012Z,80
2018-01-27T04:44:59.006Z,80.1
2018-01-27T04:45:59.041Z,80.1
2018-01-27T04:46:59.092Z,80.1
2018-01-27T04:47:59.360Z,80.29
2018-01-27T04:48:59.080Z,79.91
2018-01-27T04:49:59.084Z,79.91
2018-01-27T04:50:59.396Z,80.29
2018-01-27T04:51:59.133Z,80.1
2018-01-27T04:52:59.136Z,79.81
2018-01-27T04:53:59.420Z,80
2018-01-27T04:54:59.462Z,80
2018-01-27T04:55:59.479Z,80.19
2018-01-27T04:56:59.179Z,80.1
2018-01-27T04:57:59.203Z,79.91
2018-01-27T04:58:59.475Z,80.1
2018-01-27T04:59:59.521Z,80
2018-01-27T05:00:59.542Z,80.38
2018-01-27T05:01:59.268Z,80.19
2018-01-27T05:02:59.574Z,80.29
2018-01-27T05:03:59.268Z,80.29
2018-01-27T05:04:59.569Z,80.1
2018-01-27T05:05:59.583Z,80.1
2018-01-27T05:06:59.585Z,79.91
2018-01-27T05:07:59.318Z,80.47
2018-01-27T05:08:59.331Z,80.1
2018-01-27T05:09:59.366Z,79.81
2018-01-27T05:10:59.368Z,80.1
2018-01-27T05:11:59.662Z,79.91
2018-01-27T05:12:59.666Z,79.72
2018-01-27T05:13:59.691Z,79.91
2018-01-27T05:14:59.704Z,80.1
2018-01-27T05:15:59.707Z,80.1
2018-01-27T05:16:59.472Z,80
2018-01-27T05:17:59.733Z,79.81
2018-01-27T05:18:59.479Z,79.91
2018-01-27T05:19:59.491Z,79.91
2018-01-27T05:20:59.493Z,79.81
2018-01-27T05:21:59.519Z,79.81
2018-01-27T05:22:59.811Z,80
2018-01-27T05:23:59.554Z,79.81
2018-01-27T05:24:59.872Z,80.19
2018-01-27T05:25:59.842Z,79.72
2018-01-27T05:26:59.576Z,79.91
2018-01-27T05:27:59.608Z,79.91
2018-01-27T05:28:59.890Z,79.62
2018-01-27T05:29:59.945Z,80.57
2018-01-27T05:30:59.640Z,79.72
2018-01-27T05:31:59.925Z,80.1
2018-01-27T05:32:59.969Z,79.81
2018-01-27T05:33:59.701Z,79.91
2018-01-27T05:35:00.041Z,80.1
2018-01-27T05:36:00.011Z,80.1
2018-01-27T05:37:00.031Z,79.91
2018-01-27T05:38:00.009Z,79.91
2018-01-27T05:39:00.023Z,80
2018-01-27T05:39:59.784Z,80
2018-01-27T05:41:00.048Z,80.1
2018-01-27T05:42:00.089Z,80.29
2018-01-27T05:43:00.075Z,79.81
2018-01-27T05:43:59.929Z,80.29
2018-01-27T05:44:59.841Z,80.29
2018-01-27T05:45:59.855Z,80.1
2018-01-27T05:46:59.878Z,79.72
2018-01-27T05:48:00.140Z,80.19
2018-01-27T05:49:00.184Z,80.1
2018-01-27T05:50:00.205Z,80.19
2018-01-27T05:51:00.215Z,80.1
2018-01-27T05:51:59.948Z,80.1
2018-01-27T05:53:00.217Z,79.91
2018-01-27T05:53:59.965Z,80
2018-01-27T05:55:00.278Z,80
2018-01-27T05:56:00.278Z,80
2018-01-27T05:57:00.295Z,79.91
2018-01-27T05:58:00.274Z,80
2018-01-27T05:59:00.010Z,80.19
2018-01-27T06:00:00.044Z,80.1
2018-01-27T06:01:00.148Z,80.29
2018-01-27T06:02:00.138Z,80.1
2018-01-27T06:03:00.063Z,80.29
2018-01-27T06:04:00.367Z,80
2018-01-27T06:05:00.431Z,80.19
2018-01-27T06:06:00.104Z,80.19
2018-01-27T06:07:00.412Z,80
2018-01-27T06:08:00.140Z,80.1
2018-01-27T06:09:00.143Z,80.19
2018-01-27T06:10:00.168Z,80.1
2018-01-27T06:11:00.503Z,80.1
2018-01-27T06:12:00.478Z,79.72
2018-01-27T06:13:00.670Z,80
2018-01-27T06:14:00.504Z,79.62
2018-01-27T06:15:00.508Z,79.91
2018-01-27T06:16:00.250Z,80.1
2018-01-27T06:17:00.536Z,80.29
2018-01-27T06:18:00.315Z,80.19
2018-01-27T06:19:00.599Z,80.1
2018-01-27T06:20:00.318Z,80.1
2018-01-27T06:21:00.326Z,80.1
2018-01-27T06:22:00.358Z,80.1
2018-01-27T06:23:00.618Z,79.62
2018-01-27T06:24:00.670Z,79.81
2018-01-27T06:25:00.384Z,79.81
2018-01-27T06:26:00.701Z,79.81
2018-01-27T06:27:00.716Z,79.81
2018-01-27T06:28:00.407Z,79.72
2018-01-27T06:29:00.694Z,80.1
2018-01-27T06:30:00.465Z,80.19
2018-01-27T06:31:00.766Z,80
2018-01-27T06:32:00.753Z,79.62
2018-01-27T06:33:00.790Z,80.19
2018-01-27T06:34:00.520Z,80
2018-01-27T06:35:00.807Z,80
2018-01-27T06:36:00.528Z,80.1
2018-01-27T06:37:00.813Z,79.62
2018-01-27T06:38:00.555Z,79.62
2018-01-27T06:39:00.846Z,80.1
2018-01-27T06:40:00.594Z,79.72
2018-01-27T06:41:00.862Z,80.29
2018-01-27T06:42:00.919Z,80
2018-01-27T06:43:00.943Z,79.81
2018-01-27T06:44:00.908Z,80
2018-01-27T06:45:00.640Z,80
2018-01-27T06:46:00.667Z,80.1
2018-01-27T06:47:00.940Z,79.81
2018-01-27T06:48:00.820Z,80.19
2018-01-27T06:49:01.007Z,80
2018-01-27T06:50:01.029Z,79.81
2018-01-27T06:51:00.713Z,80.1
2018-01-27T06:52:01.047Z,80.29
2018-01-27T06:53:00.736Z,80.1
2018-01-27T06:54:00.784Z,79.81
2018-01-27T06:55:01.047Z,80.1
2018-01-27T06:56:00.783Z,80.1
2018-01-27T06:57:01.184Z,79.52
2018-01-27T06:58:01.140Z,79.52
2018-01-27T06:59:01.113Z,79.52
2018-01-27T07:00:00.838Z,79.43
2018-01-27T07:01:01.143Z,79.81
2018-01-27T07:02:00.859Z,79.72
2018-01-27T07:03:01.164Z,79.62
2018-01-27T07:04:01.183Z,79.52
2018-01-27T07:05:00.900Z,79.52
2018-01-27T07:06:00.929Z,79.72
2018-01-27T07:07:01.216Z,79.72
2018-01-27T07:08:00.989Z,80.38
2018-01-27T07:09:00.954Z,79.81
2018-01-27T07:10:01.256Z,80.1
2018-01-27T07:11:00.979Z,79.43
2018-01-27T07:12:01.003Z,80.1
2018-01-27T07:13:01.029Z,79.52
2018-01-27T07:14:01.040Z,80.1
2018-01-27T07:15:01.356Z,80.1
2018-01-27T07:16:01.359Z,80
2018-01-27T07:17:01.082Z,79.91
2018-01-27T07:18:01.525Z,79.72
2018-01-27T07:19:01.376Z,79.62
2018-01-27T07:20:01.414Z,79.52
2018-01-27T07:21:01.427Z,79.72
2018-01-27T07:22:01.453Z,79.52
2018-01-27T07:23:01.421Z,79.91
2018-01-27T07:24:01.159Z,79.72
2018-01-27T07:25:01.181Z,79.81
2018-01-27T07:26:01.232Z,79.62
2018-01-27T07:27:01.518Z,79.81
2018-01-27T07:28:01.548Z,79.62
2018-01-27T07:29:01.533Z,79.62
2018-01-27T07:30:01.558Z,79.81
2018-01-27T07:31:01.282Z,79.62
2018-01-27T07:32:01.589Z,79.72
2018-01-27T07:33:01.438Z,80
2018-01-27T07:34:01.571Z,79.52
2018-01-27T07:35:01.598Z,80.19
2018-01-27T07:36:01.607Z,79.62
2018-01-27T07:37:01.364Z,80.1
2018-01-27T07:38:01.405Z,80.19
2018-01-27T07:39:01.649Z,80.1
2018-01-27T07:40:01.395Z,80
2018-01-27T07:41:01.679Z,80.19
2018-01-27T07:42:01.771Z,80.29
2018-01-27T07:43:01.726Z,80.19
2018-01-27T07:44:01.425Z,79.81
2018-01-27T07:45:01.761Z,79.91
2018-01-27T07:46:01.892Z,80.1
2018-01-27T07:47:01.499Z,79.62
2018-01-27T07:48:01.801Z,80.19
2018-01-27T07:49:01.815Z,80.1
2018-01-27T07:50:01.526Z,79.81
2018-01-27T07:51:01.831Z,80.29
2018-01-27T07:52:01.544Z,80.19
2018-01-27T07:53:01.557Z,80.19
2018-01-27T07:54:01.938Z,80.1
2018-01-27T07:55:01.584Z,80
2018-01-27T07:56:01.899Z,79.81
2018-01-27T07:57:01.599Z,80.1
2018-01-27T07:58:01.616Z,79.91
2018-01-27T07:59:01.921Z,79.52
2018-01-27T08:00:01.962Z,79.52
2018-01-27T08:01:01.933Z,80.1
2018-01-27T08:02:01.668Z,79.72
2018-01-27T08:03:01.963Z,80
2018-01-27T08:04:01.978Z,79.52
2018-01-27T08:05:01.740Z,79.52
2018-01-27T08:06:02.047Z,79.72
2018-01-27T08:07:01.761Z,80
2018-01-27T08:08:01.765Z,80
2018-01-27T08:09:01.767Z,79.91
2018-01-27T08:10:02.071Z,79.72
2018-01-27T08:11:02.111Z,79.62
2018-01-27T08:12:02.095Z,80.1
2018-01-27T08:13:01.817Z,79.52
2018-01-27T08:14:02.130Z,79.62
2018-01-27T08:15:01.847Z,79.62
2018-01-27T08:16:02.169Z,79.91
2018-01-27T08:17:01.869Z,79.52
2018-01-27T08:18:02.197Z,79.33
2018-01-27T08:19:02.176Z,79.62
2018-01-27T08:20:02.234Z,79.62
2018-01-27T08:21:02.236Z,79.62
2018-01-27T08:22:01.960Z,79.81
2018-01-27T08:23:01.952Z,79.43
2018-01-27T08:24:02.306Z,79.81
2018-01-27T08:25:01.991Z,79.62
2018-01-27T08:26:02.015Z,79.62
2018-01-27T08:27:02.026Z,80.1
2018-01-27T08:28:02.301Z,80.19
2018-01-27T08:29:02.348Z,80
2018-01-27T08:30:02.342Z,80
2018-01-27T08:31:02.387Z,80.1
2018-01-27T08:32:02.087Z,80.19
2018-01-27T08:33:02.378Z,79.81
2018-01-27T08:34:02.383Z,80.1
2018-01-27T08:35:02.121Z,79.91
2018-01-27T08:36:02.451Z,79.72
2018-01-27T08:37:02.425Z,79.62
2018-01-27T08:38:02.165Z,79.72
2018-01-27T08:39:02.461Z,79.66
2018-01-27T08:40:02.516Z,79.72
2018-01-27T08:41:02.520Z,79.66
2018-01-27T08:42:02.493Z,79.66
2018-01-27T08:43:02.235Z,79.33
2018-01-27T08:44:02.570Z,79.57
2018-01-27T08:45:02.288Z,79.19
2018-01-27T08:46:02.301Z,78.99
2018-01-27T08:47:02.562Z,78.9
2018-01-27T08:48:02.618Z,79.19
2018-01-27T08:49:02.307Z,79.19
2018-01-27T08:50:02.646Z,79.28
2018-01-27T08:51:02.617Z,78.9
2018-01-27T08:52:02.380Z,79.19
2018-01-27T08:53:02.674Z,79.19
2018-01-27T08:54:02.417Z,78.71
2018-01-27T08:55:02.402Z,79.19
2018-01-27T08:56:02.728Z,78.99
2018-01-27T08:57:02.429Z,79.09
2018-01-27T08:58:02.454Z,78.99
2018-01-27T08:59:02.734Z,78.99
2018-01-27T09:00:02.472Z,78.9
2018-01-27T09:01:02.795Z,79.19
2018-01-27T09:02:02.830Z,78.71
2018-01-27T09:03:02.791Z,78.9
2018-01-27T09:04:02.810Z,78.8
2018-01-27T09:05:02.846Z,79.38
2018-01-27T09:06:02.864Z,79.28
2018-01-27T09:07:02.567Z,79.09
2018-01-27T09:08:02.694Z,79.28
2018-01-27T09:09:02.584Z,79.28
2018-01-27T09:10:02.628Z,79.09
2018-01-27T09:11:02.890Z,78.9
2018-01-27T09:12:02.954Z,79.19
2018-01-27T09:13:02.919Z,78.8
2018-01-27T09:14:02.705Z,79.19
2018-01-27T09:15:02.989Z,79.28
2018-01-27T09:16:02.968Z,78.9
2018-01-27T09:17:02.705Z,79.09
2018-01-27T09:18:02.966Z,78.9
2018-01-27T09:19:02.756Z,78.71
2018-01-27T09:20:02.774Z,78.85
2018-01-27T09:21:03.072Z,79.03
2018-01-27T09:22:03.077Z,78.65
2018-01-27T09:23:03.106Z,78.71
2018-01-27T09:24:02.820Z,78.99
2018-01-27T09:25:02.838Z,78.94
2018-01-27T09:26:03.121Z,78.94
2018-01-27T09:27:02.836Z,78.94
2018-01-27T09:28:02.865Z,78.75
2018-01-27T09:29:02.864Z,78.56
2018-01-27T09:30:03.169Z,78.46
2018-01-27T09:31:03.170Z,78.37
2018-01-27T09:32:02.930Z,78.46
2018-01-27T09:33:03.207Z,78.75
2018-01-27T09:34:03.254Z,78.37
2018-01-27T09:35:03.229Z,78.65
2018-01-27T09:36:03.276Z,78.75
2018-01-27T09:37:03.240Z,78.75
2018-01-27T09:38:03.042Z,78.65
2018-01-27T09:39:03.040Z,78.65
2018-01-27T09:40:03.155Z,78.75
2018-01-27T09:41:03.061Z,78.65
2018-01-27T09:42:03.362Z,78.46
2018-01-27T09:43:03.341Z,78.75
2018-01-27T09:44:03.367Z,78.17
2018-01-27T09:45:03.370Z,78.94
2018-01-27T09:46:03.418Z,78.17
2018-01-27T09:47:03.445Z,78.75
2018-01-27T09:48:03.169Z,79.03
2018-01-27T09:49:03.428Z,78.56
2018-01-27T09:50:03.445Z,78.56
2018-01-27T09:51:03.468Z,78.37
2018-01-27T09:52:03.235Z,79.03
2018-01-27T09:53:03.528Z,78.94
2018-01-27T09:54:03.314Z,78.75
2018-01-27T09:55:03.519Z,78.75
2018-01-27T09:56:03.573Z,78.75
2018-01-27T09:57:03.543Z,78.37
2018-01-27T09:58:03.287Z,78.75
2018-01-27T09:59:03.584Z,78.17
2018-01-27T10:00:03.428Z,78.27
2018-01-27T10:01:03.599Z,78.75
2018-01-27T10:02:03.449Z,78.46
2018-01-27T10:03:03.628Z,78.65
2018-01-27T10:04:03.676Z,78.56
2018-01-27T10:05:03.375Z,78.65
2018-01-27T10:06:03.674Z,78.85
2018-01-27T10:07:03.718Z,79.03
2018-01-27T10:08:03.480Z,78.37
2018-01-27T10:09:03.758Z,78.08
2018-01-27T10:10:03.470Z,78.46
2018-01-27T10:11:03.788Z,78.27
2018-01-27T10:12:03.758Z,78.17
2018-01-27T10:13:03.784Z,78.85
2018-01-27T10:14:03.798Z,79.03
2018-01-27T10:15:03.533Z,78.85
2018-01-27T10:16:03.669Z,78.37
2018-01-27T10:17:03.555Z,78.56
2018-01-27T10:18:03.586Z,78.27
2018-01-27T10:19:03.864Z,78.46
2018-01-27T10:20:03.596Z,78.56
2018-01-27T10:21:03.899Z,78.37
2018-01-27T10:22:03.913Z,78.75
2018-01-27T10:23:03.952Z,78.69
2018-01-27T10:24:04.021Z,78.75
2018-01-27T10:25:03.702Z,78.75
2018-01-27T10:26:03.963Z,78.56
2018-01-27T10:27:03.798Z,78.65
2018-01-27T10:28:03.723Z,78.5
2018-01-27T10:29:03.748Z,78.59
2018-01-27T10:30:03.830Z,78.59
2018-01-27T10:31:04.044Z,78.69
2018-01-27T10:32:04.094Z,78.22
2018-01-27T10:33:04.106Z,78.22
2018-01-27T10:34:03.821Z,78.69
2018-01-27T10:35:04.157Z,78.41
2018-01-27T10:36:04.128Z,78.41
2018-01-27T10:37:04.135Z,78.41
2018-01-27T10:38:04.141Z,78.22
2018-01-27T10:39:03.897Z,78.5
2018-01-27T10:40:04.217Z,78.22
2018-01-27T10:41:03.935Z,78.22
2018-01-27T10:42:03.929Z,78.5
2018-01-27T10:43:04.221Z,78.41
2018-01-27T10:44:04.257Z,78.5
2018-01-27T10:45:03.983Z,78.69
2018-01-27T10:46:03.998Z,78.41
2018-01-27T10:47:04.304Z,78.12
2018-01-27T10:48:04.019Z,77.83
2018-01-27T10:49:04.334Z,77.93
2018-01-27T10:50:04.116Z,78.22
2018-01-27T10:51:04.053Z,78.22
2018-01-27T10:52:04.392Z,78.12
2018-01-27T10:53:04.360Z,78.03
2018-01-27T10:54:04.095Z,77.83
2018-01-27T10:55:04.393Z,78.03
2018-01-27T10:56:04.155Z,77.26
2018-01-27T10:57:04.438Z,78.12
2018-01-27T10:58:04.477Z,78.31
2018-01-27T10:59:04.195Z,77.55
2018-01-27T11:00:04.251Z,78.12
2018-01-27T11:01:04.230Z,78.22
2018-01-27T11:02:04.225Z,78.12
2018-01-27T11:03:04.508Z,78.03
2018-01-27T11:04:04.534Z,78.03
2018-01-27T11:05:04.330Z,77.83
2018-01-27T11:06:04.595Z,77.93
2018-01-27T11:07:04.319Z,77.83
2018-01-27T11:08:04.624Z,78.22
2018-01-27T11:09:04.609Z,78.22
2018-01-27T11:10:04.624Z,78.22
2018-01-27T11:11:04.780Z,78.12
2018-01-27T11:12:04.365Z,78.12
2018-01-27T11:13:04.700Z,77.45
2018-01-27T11:14:04.684Z,77.55
2018-01-27T11:15:04.687Z,78.22
2018-01-27T11:16:04.448Z,78.03
2018-01-27T11:17:04.752Z,78.31
2018-01-27T11:18:04.494Z,78.12
2018-01-27T11:19:04.468Z,77.17
2018-01-27T11:20:04.795Z,77.55
2018-01-27T11:21:04.828Z,78.03
2018-01-27T11:22:04.825Z,77.26
2018-01-27T11:23:04.820Z,77.64
2018-01-27T11:24:04.551Z,77.78
2018-01-27T11:25:04.578Z,77.59
2018-01-27T11:26:04.854Z,77.45
2018-01-27T11:27:04.618Z,77.2
2018-01-27T11:28:04.617Z,77.11
2018-01-27T11:29:04.945Z,76.82
2018-01-27T11:30:04.643Z,77.2
2018-01-27T11:31:04.911Z,77.01
2018-01-27T11:32:04.986Z,77.17
2018-01-27T11:33:05.001Z,77.11
2018-01-27T11:34:04.990Z,77.2
2018-01-27T11:35:04.991Z,77.3
2018-01-27T11:36:05.015Z,77.3
2018-01-27T11:37:04.749Z,77.3
2018-01-27T11:38:04.764Z,77.49
2018-01-27T11:39:05.052Z,76.82
2018-01-27T11:40:05.109Z,77.3
2018-01-27T11:41:05.121Z,77.3
2018-01-27T11:42:05.095Z,77.2
2018-01-27T11:43:05.120Z,76.64
2018-01-27T11:44:04.878Z,77.49
2018-01-27T11:45:05.173Z,77.3
2018-01-27T11:46:04.886Z,77.11
2018-01-27T11:47:04.923Z,77.3
2018-01-27T11:48:05.313Z,77.49
2018-01-27T11:49:05.235Z,77.3
2018-01-27T11:50:05.261Z,77.2
2018-01-27T11:51:04.953Z,77.01
2018-01-27T11:52:05.257Z,77.49
2018-01-27T11:53:05.378Z,77.49
2018-01-27T11:54:04.997Z,76.73
2018-01-27T11:55:05.294Z,76.73
2018-01-27T11:56:05.059Z,76.82
2018-01-27T11:57:05.338Z,76.64
2018-01-27T11:58:05.376Z,76.64
2018-01-27T11:59:05.388Z,77.4
2018-01-27T12:00:05.404Z,77.3
2018-01-27T12:01:05.396Z,77.01
2018-01-27T12:02:05.130Z,77.2
2018-01-27T12:03:05.412Z,76.35
2018-01-27T12:04:05.172Z,77.2
2018-01-27T12:05:05.461Z,77.11
2018-01-27T12:06:05.498Z,77.3
2018-01-27T12:07:05.220Z,77.11
2018-01-27T12:08:05.533Z,76.54
2018-01-27T12:09:05.263Z,76.92
2018-01-27T12:10:05.536Z,77.2
2018-01-27T12:11:05.542Z,76.92
2018-01-27T12:12:05.285Z,77.2
2018-01-27T12:13:05.319Z,76.92
2018-01-27T12:14:05.583Z,76.92
2018-01-27T12:15:05.355Z,77.2
2018-01-27T12:16:05.335Z,77.2
2018-01-27T12:17:05.629Z,76.54
2018-01-27T12:18:05.400Z,77.3
2018-01-27T12:19:05.391Z,77.2
2018-01-27T12:20:05.722Z,77.01
2018-01-27T12:21:05.414Z,76.35
2018-01-27T12:22:05.447Z,76.73
2018-01-27T12:23:05.765Z,77.2
2018-01-27T12:24:05.479Z,77.11
2018-01-27T12:25:05.478Z,77.3
2018-01-27T12:26:05.786Z,76.64
2018-01-27T12:27:05.516Z,76.73
2018-01-27T12:28:05.833Z,76.73
2018-01-27T12:29:05.569Z,76.64
2018-01-27T12:30:05.551Z,76.06
2018-01-27T12:31:05.595Z,76.06
2018-01-27T12:32:05.906Z,76.06
2018-01-27T12:33:05.598Z,76.35
2018-01-27T12:34:05.938Z,76.54
2018-01-27T12:35:05.910Z,76.06
2018-01-27T12:36:05.653Z,76.64
2018-01-27T12:37:05.689Z,76.64
2018-01-27T12:38:06.008Z,76.73
2018-01-27T12:39:06.004Z,76.54
2018-01-27T12:40:06.016Z,76.73
2018-01-27T12:41:06.045Z,76.1
2018-01-27T12:42:06.079Z,76.64
2018-01-27T12:43:06.063Z,76.06
2018-01-27T12:44:05.959Z,76.06
2018-01-27T12:45:05.782Z,76.44
2018-01-27T12:46:06.119Z,76.29
2018-01-27T12:47:06.187Z,76.48
2018-01-27T12:48:06.107Z,76.2
2018-01-27T12:49:05.846Z,76.2
2018-01-27T12:50:06.139Z,76.57
2018-01-27T12:51:06.189Z,76.1
2018-01-27T12:52:06.180Z,75.91
2018-01-27T12:53:06.197Z,75.81
2018-01-27T12:54:05.932Z,75.62
2018-01-27T12:55:06.275Z,75.72
2018-01-27T12:56:05.957Z,75.72
2018-01-27T12:57:06.028Z,75.91
2018-01-27T12:58:05.995Z,76.1
2018-01-27T12:59:06.311Z,75.43
2018-01-27T13:00:06.340Z,75.53
2018-01-27T13:01:06.041Z,75.3
2018-01-27T13:02:06.408Z,75.53
2018-01-27T13:03:06.073Z,75.34